Time;durP1;ratioP1;P1;durP2;ratioP2;P2;SDS_P1;SDS_P2;PMS_P1;PMS_P2;Temp;Humidity;BMP_temperature;BMP_pressure;BME280_temperature;BME280_humidity;BME280_pressure;Samples;Min_cycle;Max_cycle;Signal;HPM_P1;HPM_P2
2022/04/23 00:00:22;;;;;;;7.78;5.15;;;14.80;79.00;;;;;;5023908;28;20160;-74
2022/04/23 00:02:48;;;;;;;6.93;4.75;;;14.80;79.00;;;;;;5031787;28;20032;-74
2022/04/23 00:05:14;;;;;;;7.93;5.25;;;14.80;79.00;;;;;;5031894;28;20111;-74
2022/04/23 00:07:40;;;;;;;7.40;5.00;;;14.80;79.00;;;;;;5031988;28;20500;-74
2022/04/23 00:10:06;;;;;;;7.65;5.10;;;14.80;79.00;;;;;;5016535;28;20748;-74
2022/04/23 00:12:31;;;;;;;7.80;4.82;;;14.80;79.00;;;;;;5018923;28;20025;-74
2022/04/23 00:14:57;;;;;;;6.38;4.47;;;14.80;79.00;;;;;;5012794;28;20061;-72
2022/04/23 00:17:22;;;;;;;7.13;4.80;;;14.80;79.00;;;;;;5031411;28;20022;-74
2022/04/23 00:19:48;;;;;;;7.65;5.32;;;14.80;79.50;;;;;;5028126;28;20099;-73
2022/04/23 00:22:16;;;;;;;7.28;4.65;;;14.80;79.00;;;;;;5014224;28;20021;-73
2022/04/23 00:24:42;;;;;;;6.90;4.53;;;14.80;79.00;;;;;;4993231;28;20018;-74
2022/04/23 00:27:07;;;;;;;7.32;4.82;;;14.80;78.90;;;;;;5007952;28;20018;-74
2022/04/23 00:29:35;;;;;;;7.65;4.95;;;14.80;79.00;;;;;;5016241;28;20440;-74
2022/04/23 00:32:03;;;;;;;7.90;4.90;;;14.80;78.90;;;;;;5021997;28;20052;-74
2022/04/23 00:34:28;;;;;;;7.93;4.75;;;14.80;79.00;;;;;;5011741;28;20060;-73
2022/04/23 00:36:54;;;;;;;7.18;4.80;;;14.80;79.00;;;;;;5011642;28;20034;-74
2022/04/23 00:39:20;;;;;;;8.00;5.35;;;14.80;79.00;;;;;;5011040;28;20029;-74
2022/04/23 00:41:46;;;;;;;6.80;4.70;;;14.80;79.00;;;;;;5010960;28;20049;-74
2022/04/23 00:44:12;;;;;;;7.90;5.03;;;14.80;79.00;;;;;;5018168;28;20022;-74
2022/04/23 00:46:38;;;;;;;7.93;4.72;;;14.80;78.90;;;;;;5025875;28;20024;-71
2022/04/23 00:49:05;;;;;;;7.45;5.38;;;14.80;78.90;;;;;;5030965;28;20033;-74
2022/04/23 00:51:32;;;;;;;7.13;5.05;;;14.90;78.90;;;;;;5022673;28;20029;-74
2022/04/23 00:54:01;;;;;;;7.50;4.80;;;14.90;78.80;;;;;;5020553;28;22079;-71
2022/04/23 00:56:26;;;;;;;7.75;5.22;;;14.90;78.60;;;;;;5019155;28;20025;-75
2022/04/23 00:58:52;;;;;;;7.05;4.95;;;14.90;78.50;;;;;;5010586;28;20044;-75
2022/04/23 01:01:23;;;;;;;8.00;5.00;;;14.90;78.40;;;;;;5019655;28;20485;-72
2022/04/23 01:03:49;;;;;;;7.43;4.93;;;14.90;78.20;;;;;;5023355;28;20106;-73
2022/04/23 01:06:16;;;;;;;6.90;4.90;;;15.00;78.20;;;;;;5022655;28;20022;-74
2022/04/23 01:08:41;;;;;;;6.93;4.53;;;15.00;78.20;;;;;;5022065;28;20032;-73
2022/04/23 01:11:07;;;;;;;7.05;4.82;;;14.90;78.10;;;;;;5031661;28;20037;-74
2022/04/23 01:13:33;;;;;;;7.78;4.70;;;15.00;78.10;;;;;;5023415;28;20453;-73
2022/04/23 01:16:00;;;;;;;7.28;4.72;;;15.00;78.10;;;;;;5028086;28;20032;-73
2022/04/23 01:18:26;;;;;;;7.38;4.85;;;15.00;78.10;;;;;;5030346;28;20025;-74
2022/04/23 01:20:54;;;;;;;7.50;4.80;;;15.00;78.10;;;;;;5021809;28;20511;-75
2022/04/23 01:23:19;;;;;;;7.28;4.95;;;15.00;78.10;;;;;;5011589;28;20569;-72
2022/04/23 01:25:46;;;;;;;7.60;5.35;;;15.00;78.10;;;;;;5011947;28;20112;-74
2022/04/23 01:28:12;;;;;;;7.15;4.93;;;14.90;78.10;;;;;;5004597;28;20019;-72
2022/04/23 01:30:38;;;;;;;7.00;4.78;;;14.90;78.20;;;;;;5005804;28;20034;-73
2022/04/23 01:33:03;;;;;;;7.30;5.20;;;14.90;78.30;;;;;;5010746;28;20079;-72
2022/04/23 01:35:29;;;;;;;8.07;5.20;;;14.90;78.40;;;;;;5006961;28;20030;-72
2022/04/23 01:37:55;;;;;;;7.38;5.40;;;14.90;78.50;;;;;;5006375;28;20037;-74
2022/04/23 01:40:21;;;;;;;8.20;5.40;;;14.90;78.60;;;;;;5023393;28;20038;-73
2022/04/23 01:42:46;;;;;;;7.88;5.75;;;14.80;78.60;;;;;;5026301;28;20032;-74
2022/04/23 01:45:12;;;;;;;7.45;5.13;;;14.80;78.60;;;;;;5023100;28;20087;-73
2022/04/23 01:47:37;;;;;;;7.78;5.40;;;14.80;79.20;;;;;;5022243;28;20040;-73
2022/04/23 01:50:03;;;;;;;7.63;5.30;;;14.80;78.70;;;;;;5022277;28;20034;-73
2022/04/23 01:52:29;;;;;;;7.95;5.40;;;14.80;78.70;;;;;;5031079;28;20056;-74
2022/04/23 01:54:54;;;;;;;6.82;4.97;;;14.70;78.70;;;;;;5031443;28;20026;-73
2022/04/23 01:57:20;;;;;;;7.63;4.93;;;14.80;78.80;;;;;;5027077;28;20069;-72
2022/04/23 01:59:45;;;;;;;7.88;5.13;;;14.80;78.80;;;;;;5019120;28;20492;-73
2022/04/23 02:02:11;;;;;;;7.65;5.30;;;14.80;78.90;;;;;;5010280;28;20202;-72
2022/04/23 02:04:36;;;;;;;8.02;5.13;;;14.80;78.90;;;;;;5011710;28;20080;-73
2022/04/23 02:07:02;;;;;;;8.15;5.32;;;14.80;78.90;;;;;;5010892;28;20026;-72
2022/04/23 02:09:27;;;;;;;7.22;4.95;;;14.80;79.00;;;;;;5005802;28;20030;-73
2022/04/23 02:11:53;;;;;;;8.13;5.35;;;14.80;79.00;;;;;;5011002;28;20088;-73
2022/04/23 02:14:18;;;;;;;8.18;5.20;;;14.70;79.00;;;;;;5008919;28;20025;-73
2022/04/23 02:16:44;;;;;;;7.65;5.60;;;14.70;79.10;;;;;;5015819;28;20029;-74
2022/04/23 02:19:09;;;;;;;7.78;5.28;;;14.70;79.10;;;;;;5010474;28;20029;-73
2022/04/23 02:21:35;;;;;;;7.43;5.40;;;14.70;79.10;;;;;;5011136;28;20485;-73
2022/04/23 02:24:04;;;;;;;7.60;5.25;;;14.70;79.10;;;;;;5011788;28;20026;-73
2022/04/23 02:26:29;;;;;;;7.88;5.30;;;14.70;79.10;;;;;;5015975;28;20114;-73
2022/04/23 02:28:55;;;;;;;7.28;5.30;;;14.70;79.20;;;;;;5017568;28;20116;-72
2022/04/23 02:31:20;;;;;;;8.65;5.47;;;14.70;79.20;;;;;;5010139;28;20030;-73
2022/04/23 02:33:46;;;;;;;7.50;5.22;;;14.70;79.20;;;;;;5006360;28;20040;-73
2022/04/23 02:36:12;;;;;;;7.43;5.13;;;14.70;79.20;;;;;;5010512;28;20030;-74
2022/04/23 02:38:40;;;;;;;7.53;5.45;;;14.70;79.30;;;;;;5003754;28;20086;-73
2022/04/23 02:41:09;;;;;;;7.68;4.75;;;14.70;79.20;;;;;;5006806;28;20022;-73
2022/04/23 02:43:35;;;;;;;7.63;5.15;;;14.70;79.20;;;;;;5006437;28;20398;-72
2022/04/23 02:46:02;;;;;;;7.40;5.03;;;14.80;79.30;;;;;;5015948;28;20628;-70
2022/04/23 02:48:28;;;;;;;7.35;5.22;;;14.70;79.20;;;;;;5006805;28;20026;-73
2022/04/23 02:50:54;;;;;;;7.05;4.88;;;14.70;79.30;;;;;;5020682;28;20021;-73
2022/04/23 02:53:20;;;;;;;7.15;4.88;;;14.70;79.30;;;;;;5017879;28;20033;-74
2022/04/23 02:55:46;;;;;;;6.82;4.45;;;14.70;79.20;;;;;;5016668;28;20040;-73
2022/04/23 02:58:12;;;;;;;7.15;5.10;;;14.70;79.20;;;;;;5013692;28;20037;-73
2022/04/23 03:00:42;;;;;;;7.53;4.82;;;14.70;79.20;;;;;;5005327;28;20030;-73
2022/04/23 03:03:09;;;;;;;7.72;5.45;;;14.70;79.20;;;;;;5021482;28;20024;-73
2022/04/23 03:05:35;;;;;;;7.68;5.35;;;14.70;79.20;;;;;;5017786;28;20461;-71
2022/04/23 03:08:00;;;;;;;7.20;4.90;;;14.70;79.20;;;;;;5006626;28;20038;-73
2022/04/23 03:10:30;;;;;;;7.35;5.03;;;14.70;79.20;;;;;;5017052;28;20624;-73
2022/04/23 03:12:57;;;;;;;7.30;4.85;;;14.70;79.20;;;;;;5000979;28;20137;-73
2022/04/23 03:15:26;;;;;;;7.00;4.70;;;14.70;79.20;;;;;;5017156;28;20026;-71
2022/04/23 03:18:03;;;;;;;7.78;5.20;;;14.70;79.20;;;;;;5024305;28;20026;-72
2022/04/23 03:20:29;;;;;;;7.18;4.88;;;14.70;79.30;;;;;;5019957;28;20500;-75
2022/04/23 03:22:54;;;;;;;7.68;5.20;;;14.70;79.20;;;;;;5010774;28;20030;-73
2022/04/23 03:25:20;;;;;;;7.57;5.10;;;14.70;79.10;;;;;;5033177;28;20022;-74
2022/04/23 03:27:45;;;;;;;7.75;5.25;;;14.80;79.10;;;;;;5024011;28;20026;-74
2022/04/23 03:30:11;;;;;;;7.30;5.25;;;14.80;78.90;;;;;;5015681;28;20048;-71
2022/04/23 03:32:36;;;;;;;6.38;4.30;;;14.80;78.70;;;;;;5017705;28;20038;-73
2022/04/23 03:35:05;;;;;;;6.72;4.65;;;14.80;78.50;;;;;;5013964;28;20486;-71
2022/04/23 03:37:30;;;;;;;7.65;5.10;;;14.80;78.40;;;;;;5021466;28;20547;-74
2022/04/23 03:39:56;;;;;;;7.50;5.20;;;14.90;78.40;;;;;;5018462;28;20030;-74
2022/04/23 03:42:21;;;;;;;8.00;5.32;;;14.90;78.20;;;;;;5026898;28;20053;-71
2022/04/23 03:44:47;;;;;;;7.05;4.90;;;14.90;78.20;;;;;;5018445;28;20221;-74
2022/04/23 03:47:12;;;;;;;7.32;5.10;;;14.90;78.10;;;;;;5032380;28;20017;-72
2022/04/23 03:49:38;;;;;;;7.25;5.18;;;14.90;78.10;;;;;;5028760;28;20025;-72
2022/04/23 03:52:04;;;;;;;7.10;4.60;;;14.90;78.00;;;;;;5024067;28;20109;-74
2022/04/23 03:54:29;;;;;;;6.95;4.80;;;14.90;78.00;;;;;;5013642;28;20145;-74
2022/04/23 03:56:55;;;;;;;6.50;4.65;;;14.90;78.00;;;;;;5029415;28;20061;-73
2022/04/23 03:59:21;;;;;;;8.30;4.95;;;14.90;78.10;;;;;;5024042;28;20483;-73
2022/04/23 04:01:48;;;;;;;7.18;4.55;;;14.90;78.10;;;;;;5020661;28;20028;-73
2022/04/23 04:04:14;;;;;;;8.05;5.18;;;14.90;78.20;;;;;;5023950;28;20071;-73
2022/04/23 04:06:41;;;;;;;6.90;5.10;;;14.80;78.30;;;;;;5027527;28;20026;-74
2022/04/23 04:09:06;;;;;;;7.35;5.10;;;14.80;78.30;;;;;;5021661;28;20105;-74
2022/04/23 04:12:01;;;;;;;8.15;5.32;;;14.80;78.40;;;;;;5012793;28;20108;-72
2022/04/23 04:14:18;;;;;;;7.50;5.32;;;14.80;78.60;;;;;;4999138;28;20477;-73
2022/04/23 04:16:45;;;;;;;7.88;5.00;;;14.80;78.60;;;;;;5027000;28;20037;-71
2022/04/23 04:19:14;;;;;;;6.75;4.80;;;14.80;78.80;;;;;;5015042;28;20361;-73
2022/04/23 04:21:46;;;;;;;7.57;5.05;;;14.70;78.80;;;;;;5022734;28;20025;-74
2022/04/23 04:24:16;;;;;;;7.38;5.00;;;14.70;78.90;;;;;;5007267;28;20022;-73
2022/04/23 04:26:43;;;;;;;7.38;4.93;;;14.70;78.90;;;;;;5009155;28;20041;-71
2022/04/23 04:29:10;;;;;;;7.05;5.03;;;14.70;78.90;;;;;;5000216;28;20523;-73
2022/04/23 04:31:51;;;;;;;7.20;5.03;;;14.80;79.00;;;;;;5014346;28;20088;-73
2022/04/23 04:34:24;;;;;;;7.35;5.35;;;14.70;79.00;;;;;;5008364;28;20032;-73
2022/04/23 04:36:50;;;;;;;7.88;5.22;;;14.70;79.10;;;;;;5021563;28;20029;-73
2022/04/23 04:39:17;;;;;;;8.13;5.38;;;14.70;79.00;;;;;;5010266;28;20098;-73
2022/04/23 04:41:43;;;;;;;6.97;4.90;;;14.70;79.10;;;;;;5027758;28;20083;-71
2022/04/23 04:44:10;;;;;;;9.13;5.22;;;14.70;79.10;;;;;;5024906;28;20543;-72
2022/04/23 04:46:36;;;;;;;7.75;5.57;;;14.70;79.00;;;;;;5007496;28;20030;-74
2022/04/23 04:49:03;;;;;;;7.18;5.13;;;14.70;79.00;;;;;;5011762;28;20052;-72
2022/04/23 04:51:29;;;;;;;7.15;5.00;;;14.70;79.10;;;;;;5011008;28;20786;-76
2022/04/23 04:53:55;;;;;;;8.32;5.20;;;14.70;79.10;;;;;;5018471;28;20038;-73
2022/04/23 04:56:20;;;;;;;7.25;4.95;;;14.70;79.10;;;;;;5027164;28;20025;-76
2022/04/23 04:58:47;;;;;;;6.97;4.90;;;14.70;79.10;;;;;;5009737;28;20030;-74
2022/04/23 05:01:12;;;;;;;7.53;5.10;;;14.60;79.10;;;;;;5025947;28;20037;-75
2022/04/23 05:03:39;;;;;;;7.85;5.30;;;14.70;79.20;;;;;;5008818;28;20061;-74
2022/04/23 05:06:06;;;;;;;7.32;5.18;;;14.70;79.20;;;;;;5005584;28;20080;-73
2022/04/23 05:08:31;;;;;;;7.53;4.85;;;14.70;79.20;;;;;;5009067;28;20022;-74
2022/04/23 05:10:57;;;;;;;7.45;5.15;;;14.60;79.20;;;;;;5011899;28;20083;-74
2022/04/23 05:13:22;;;;;;;7.50;5.38;;;14.70;79.80;;;;;;5010126;28;20033;-73
2022/04/23 05:15:48;;;;;;;7.28;5.10;;;14.70;79.20;;;;;;5011323;28;20029;-74
2022/04/23 05:18:14;;;;;;;7.10;5.00;;;14.70;79.30;;;;;;5018510;28;20022;-73
2022/04/23 05:20:40;;;;;;;7.00;5.10;;;14.70;79.30;;;;;;5027041;28;20029;-74
2022/04/23 05:23:06;;;;;;;7.20;5.20;;;14.70;79.30;;;;;;5010862;28;20392;-72
2022/04/23 05:25:31;;;;;;;7.30;5.35;;;14.70;79.30;;;;;;5010829;28;20534;-75
2022/04/23 05:27:58;;;;;;;7.00;5.13;;;14.70;79.20;;;;;;5006973;28;20125;-74
2022/04/23 05:30:24;;;;;;;6.80;5.00;;;14.70;79.20;;;;;;4994394;28;20049;-73
2022/04/23 05:32:49;;;;;;;7.32;5.05;;;14.70;79.00;;;;;;5002738;28;20493;-74
2022/04/23 05:35:15;;;;;;;6.85;4.85;;;14.70;79.10;;;;;;5018764;28;20026;-73
2022/04/23 05:37:40;;;;;;;6.72;4.68;;;14.60;79.00;;;;;;5009099;28;20033;-74
2022/04/23 05:40:07;;;;;;;7.22;5.13;;;14.70;78.90;;;;;;5022737;28;20389;-69
2022/04/23 05:42:33;;;;;;;6.75;4.63;;;14.70;78.90;;;;;;5012643;28;20029;-74
2022/04/23 05:44:58;;;;;;;7.22;5.22;;;14.70;79.00;;;;;;5006759;28;20053;-71
2022/04/23 05:47:24;;;;;;;7.38;5.20;;;14.70;78.90;;;;;;5010687;28;20554;-71
2022/04/23 05:49:49;;;;;;;7.72;5.57;;;14.70;78.70;;;;;;5010057;28;20029;-74
2022/04/23 05:52:15;;;;;;;7.50;5.20;;;14.70;78.70;;;;;;5010916;28;20018;-74
2022/04/23 05:54:40;;;;;;;7.60;5.53;;;14.70;78.60;;;;;;5017105;28;20025;-74
2022/04/23 05:57:06;;;;;;;6.82;5.10;;;14.80;78.60;;;;;;5010618;28;20026;-72
2022/04/23 05:59:31;;;;;;;7.10;4.97;;;14.80;78.70;;;;;;5009673;28;20553;-74
2022/04/23 06:01:58;;;;;;;7.20;5.22;;;14.80;78.60;;;;;;5006136;28;20034;-73
2022/04/23 06:04:25;;;;;;;7.90;5.50;;;14.80;78.50;;;;;;5018218;28;20378;-75
2022/04/23 06:06:51;;;;;;;7.38;5.40;;;14.80;78.30;;;;;;5008914;28;20548;-74
2022/04/23 06:09:16;;;;;;;7.53;5.00;;;14.90;78.20;;;;;;5023347;28;20057;-74
2022/04/23 06:11:42;;;;;;;7.00;4.60;;;14.90;78.10;;;;;;5014202;28;20219;-74
2022/04/23 06:14:07;;;;;;;7.22;5.13;;;14.90;77.90;;;;;;5015242;28;20036;-73
2022/04/23 06:16:34;;;;;;;7.90;5.38;;;14.90;77.90;;;;;;5025093;28;20105;-74
2022/04/23 06:19:00;;;;;;;7.68;4.90;;;15.00;77.80;;;;;;5011256;28;20476;-75
2022/04/23 06:21:25;;;;;;;7.20;4.95;;;15.00;77.70;;;;;;5010427;28;20026;-72
2022/04/23 06:23:51;;;;;;;7.22;5.03;;;15.00;77.60;;;;;;5017583;28;20380;-74
2022/04/23 06:26:16;;;;;;;7.10;5.00;;;15.00;77.60;;;;;;5009169;28;20038;-71
2022/04/23 06:28:42;;;;;;;7.40;5.13;;;15.00;77.50;;;;;;5021041;28;20037;-76
2022/04/23 06:31:07;;;;;;;7.65;5.40;;;15.00;77.40;;;;;;5024094;28;21325;-74
2022/04/23 06:33:33;;;;;;;7.60;5.30;;;15.00;77.30;;;;;;5009693;28;20054;-74
2022/04/23 06:35:59;;;;;;;8.27;5.68;;;15.00;77.30;;;;;;5023118;28;20041;-74
2022/04/23 06:38:24;;;;;;;7.85;5.10;;;15.00;77.30;;;;;;5012072;28;20018;-75
2022/04/23 06:40:51;;;;;;;7.43;5.10;;;15.00;77.40;;;;;;5008188;28;20600;-75
2022/04/23 06:43:17;;;;;;;7.43;5.32;;;15.00;77.50;;;;;;5014163;28;20097;-72
2022/04/23 06:45:43;;;;;;;7.00;5.30;;;14.90;77.60;;;;;;5017390;28;20164;-74
2022/04/23 06:48:08;;;;;;;7.70;5.60;;;15.00;77.70;;;;;;5017850;28;20061;-74
2022/04/23 06:50:36;;;;;;;7.40;5.07;;;14.90;77.60;;;;;;5015388;28;20023;-73
2022/04/23 06:53:03;;;;;;;7.75;5.07;;;15.00;77.70;;;;;;5011250;28;20414;-75
2022/04/23 06:55:29;;;;;;;7.25;5.05;;;15.00;77.70;;;;;;5013930;28;20033;-75
2022/04/23 06:57:55;;;;;;;7.40;5.20;;;15.00;77.70;;;;;;5015426;28;20034;-74
2022/04/23 07:00:22;;;;;;;7.50;5.30;;;15.00;77.70;;;;;;5013044;28;20041;-75
2022/04/23 07:02:51;;;;;;;6.85;5.05;;;15.00;77.70;;;;;;5014870;28;20041;-74
2022/04/23 07:05:17;;;;;;;6.97;4.95;;;15.10;77.80;;;;;;5022514;28;20067;-74
2022/04/23 07:07:59;;;;;;;7.47;5.07;;;15.00;77.70;;;;;;5030426;28;20102;-75
2022/04/23 07:10:26;;;;;;;7.47;5.20;;;15.00;77.70;;;;;;5012362;28;20136;-74
2022/04/23 07:12:53;;;;;;;7.07;5.18;;;15.10;77.80;;;;;;5019589;28;20500;-75
2022/04/23 07:15:19;;;;;;;7.20;5.22;;;15.10;77.70;;;;;;5012331;28;20026;-73
2022/04/23 07:17:46;;;;;;;8.18;5.43;;;15.10;77.70;;;;;;5018638;28;20030;-75
2022/04/23 07:20:11;;;;;;;8.23;5.47;;;15.10;77.60;;;;;;5016204;28;20433;-75
2022/04/23 07:22:37;;;;;;;7.63;4.90;;;15.10;77.60;;;;;;5016932;28;20117;-73
2022/04/23 07:25:03;;;;;;;8.15;5.68;;;15.20;77.60;;;;;;5014266;28;20022;-74
2022/04/23 07:27:29;;;;;;;8.05;5.78;;;15.10;77.40;;;;;;5016023;28;20138;-75
2022/04/23 07:29:54;;;;;;;7.35;5.30;;;15.10;77.30;;;;;;5009945;28;20052;-74
2022/04/23 07:32:21;;;;;;;7.53;5.55;;;15.20;77.30;;;;;;5011779;28;20028;-74
2022/04/23 07:37:34;;;;;;;7.22;5.10;;;15.20;77.20;;;;;;5019038;28;20385;-74
2022/04/23 07:40:10;;;;;;;7.60;5.20;;;15.20;77.10;;;;;;5010524;28;20018;-74
2022/04/23 07:42:36;;;;;;;7.05;5.13;;;15.20;77.00;;;;;;5016780;28;20061;-73
2022/04/23 07:45:01;;;;;;;7.50;5.15;;;15.30;77.00;;;;;;5002998;28;20089;-74
2022/04/23 07:47:28;;;;;;;8.63;5.60;;;15.30;77.00;;;;;;5011657;28;20022;-74
2022/04/23 07:49:53;;;;;;;7.32;5.25;;;15.30;76.90;;;;;;5021778;28;20025;-75
2022/04/23 07:52:19;;;;;;;7.10;4.93;;;15.30;76.80;;;;;;5018485;28;20022;-75
2022/04/23 07:54:45;;;;;;;6.88;5.05;;;15.30;76.80;;;;;;5020896;28;20100;-75
2022/04/23 07:57:11;;;;;;;7.78;5.47;;;15.30;76.70;;;;;;5020836;28;20370;-74
2022/04/23 07:59:43;;;;;;;7.53;5.45;;;15.30;76.70;;;;;;5019846;28;20524;-74
2022/04/23 08:02:09;;;;;;;;;;;15.30;76.70;;;;;;5010625;28;20038;-73
2022/04/23 08:04:35;;;;;;;7.38;5.20;;;15.40;76.70;;;;;;5018787;28;19928;-75
2022/04/23 08:07:00;;;;;;;8.73;5.93;;;15.30;76.60;;;;;;5016315;28;20473;-74
2022/04/23 08:09:26;;;;;;;7.30;5.10;;;15.40;76.60;;;;;;5007927;28;20030;-74
2022/04/23 08:11:51;;;;;;;7.82;5.40;;;15.40;76.50;;;;;;5014896;28;20129;-74
2022/04/23 08:14:17;;;;;;;7.15;5.03;;;15.40;76.40;;;;;;5010830;28;20033;-74
2022/04/23 08:16:45;;;;;;;8.20;6.10;;;15.40;76.40;;;;;;5011369;28;20562;-73
2022/04/23 08:19:10;;;;;;;7.90;5.63;;;15.50;76.40;;;;;;5017367;28;20018;-75
2022/04/23 08:21:36;;;;;;;7.43;5.57;;;15.50;76.30;;;;;;5023324;28;20029;-74
2022/04/23 08:24:02;;;;;;;7.32;5.53;;;15.50;76.30;;;;;;5013160;28;20036;-74
2022/04/23 08:26:27;;;;;;;7.82;5.55;;;15.50;76.20;;;;;;5010108;28;20505;-74
2022/04/23 08:31:37;;;;;;;7.90;5.90;;;15.60;76.00;;;;;;5017763;28;20037;-74
2022/04/23 08:34:03;;;;;;;7.63;5.80;;;15.60;76.00;;;;;;5029580;28;20208;-73
2022/04/23 08:36:30;;;;;;;9.20;6.35;;;15.60;75.80;;;;;;5027301;28;20093;-73
2022/04/23 08:38:57;;;;;;;9.27;6.63;;;15.70;75.70;;;;;;5025397;28;20028;-73
2022/04/23 08:41:28;;;;;;;8.52;6.22;;;15.70;75.70;;;;;;5008848;28;20018;-74
2022/04/23 08:44:07;;;;;;;8.18;6.20;;;15.70;75.60;;;;;;5017792;28;20054;-74
2022/04/23 08:46:37;;;;;;;7.78;6.20;;;15.70;75.50;;;;;;5009834;28;20029;-74
2022/04/23 08:49:14;;;;;;;8.53;6.50;;;15.70;75.50;;;;;;5018745;28;20075;-74
2022/04/23 08:51:49;;;;;;;7.90;5.93;;;15.80;75.50;;;;;;5019056;28;20430;-73
2022/04/23 08:54:15;;;;;;;8.40;6.68;;;15.80;75.40;;;;;;5018741;28;20022;-74
2022/04/23 08:56:45;;;;;;;9.02;6.50;;;15.80;75.30;;;;;;5010686;28;20024;-74
2022/04/23 08:59:13;;;;;;;8.57;6.63;;;15.80;75.40;;;;;;5009239;28;20025;-74
2022/04/23 09:01:40;;;;;;;9.65;6.82;;;15.80;75.40;;;;;;5017873;28;20045;-74
2022/04/23 09:04:07;;;;;;;8.13;6.47;;;15.80;75.30;;;;;;5011219;28;20024;-74
2022/04/23 09:06:52;;;;;;;8.35;6.22;;;15.80;75.20;;;;;;5010627;28;20022;-74
2022/04/23 09:09:20;;;;;;;9.57;6.80;;;15.80;75.30;;;;;;5006255;28;20038;-73
2022/04/23 09:11:56;;;;;;;8.88;6.68;;;15.80;75.80;;;;;;5014459;28;20478;-75
2022/04/23 09:14:30;;;;;;;9.55;6.38;;;15.80;75.40;;;;;;4991906;28;20026;-75
2022/04/23 09:25:36;;;;;;;8.90;6.78;;;15.80;75.50;;;;;;4993495;28;20445;-75
2022/04/23 09:28:20;;;;;;;9.75;7.18;;;15.80;75.40;;;;;;4996884;28;20024;-74
2022/04/23 09:30:51;;;;;;;9.50;7.00;;;15.90;75.50;;;;;;5000156;28;20381;-74
2022/04/23 09:33:18;;;;;;;9.45;6.78;;;15.90;75.40;;;;;;5020001;28;20107;-72
2022/04/23 09:35:58;;;;;;;9.55;7.25;;;15.90;75.30;;;;;;5026978;28;20083;-74
2022/04/23 09:38:25;;;;;;;9.90;7.00;;;15.90;75.30;;;;;;5010404;28;20018;-74
2022/04/23 09:40:51;;;;;;;9.85;7.47;;;15.90;75.20;;;;;;5010399;28;20485;-74
2022/04/23 09:43:24;;;;;;;8.80;6.60;;;15.90;75.20;;;;;;5012016;28;20040;-74
2022/04/23 09:46:03;;;;;;;9.05;6.85;;;16.00;75.20;;;;;;5011207;28;20096;-72
2022/04/23 09:48:30;;;;;;;10.73;7.70;;;15.90;75.20;;;;;;5017196;28;20076;-73
2022/04/23 09:50:56;;;;;;;9.82;7.05;;;16.00;74.80;;;;;;5009698;28;20025;-74
2022/04/23 09:53:22;;;;;;;10.23;7.32;;;16.00;75.20;;;;;;5012776;28;20097;-74
2022/04/23 09:55:51;;;;;;;14.63;7.68;;;16.00;75.10;;;;;;5010977;28;20509;-74
2022/04/23 09:58:17;;;;;;;28.15;8.25;;;15.90;74.80;;;;;;5011019;28;20028;-74
2022/04/23 10:00:44;;;;;;;137.90;19.02;;;15.90;74.90;;;;;;5011525;28;20025;-74
2022/04/23 10:03:11;;;;;;;121.78;18.33;;;15.90;74.70;;;;;;5012741;28;20020;-72
2022/04/23 10:05:48;;;;;;;120.30;17.88;;;16.00;74.60;;;;;;5014806;28;20026;-74
2022/04/23 10:08:16;;;;;;;130.02;19.05;;;15.90;74.20;;;;;;5014166;28;20096;-75
2022/04/23 10:11:03;;;;;;;129.75;17.95;;;16.00;74.50;;;;;;5015979;28;20388;-73
2022/04/23 10:13:30;;;;;;;110.78;17.60;;;16.00;74.30;;;;;;5005236;28;20038;-71
2022/04/23 10:15:58;;;;;;;117.95;17.67;;;16.00;74.30;;;;;;5014511;28;20032;-74
2022/04/23 10:18:24;;;;;;;106.97;17.90;;;16.00;74.30;;;;;;5013937;28;20481;-74
2022/04/23 10:20:57;;;;;;;85.70;17.33;;;16.00;74.20;;;;;;5013836;28;20034;-72
2022/04/23 10:23:47;;;;;;;103.30;17.77;;;16.00;74.30;;;;;;5024662;28;20025;-74
2022/04/23 10:26:35;;;;;;;108.10;17.10;;;16.00;74.40;;;;;;5013982;28;20045;-74
2022/04/23 10:29:06;;;;;;;96.57;16.98;;;16.00;74.30;;;;;;5020708;28;20035;-74
2022/04/23 10:31:31;;;;;;;107.53;16.92;;;16.00;74.30;;;;;;5011992;28;20017;-74
2022/04/23 10:33:57;;;;;;;103.43;16.73;;;16.00;74.30;;;;;;5017841;28;20102;-74
2022/04/23 10:36:23;;;;;;;99.38;17.15;;;16.00;74.40;;;;;;5035513;28;20056;-74
2022/04/23 10:38:53;;;;;;;83.38;16.30;;;16.00;74.40;;;;;;5025075;28;20029;-73
2022/04/23 10:41:20;;;;;;;82.45;16.17;;;16.00;74.40;;;;;;5033504;28;20017;-72
2022/04/23 10:44:00;;;;;;;82.85;16.20;;;16.00;74.50;;;;;;5027766;28;20069;-74
2022/04/23 10:46:38;;;;;;;82.72;16.17;;;16.00;74.40;;;;;;5012973;28;20025;-76
2022/04/23 10:49:16;;;;;;;80.22;16.17;;;16.00;74.50;;;;;;5033674;28;20534;-73
2022/04/23 10:51:56;;;;;;;69.97;15.00;;;16.00;74.50;;;;;;5031893;28;20025;-73
2022/04/23 10:54:40;;;;;;;77.45;14.68;;;16.00;74.70;;;;;;5013485;28;20072;-74
2022/04/23 10:57:10;;;;;;;73.18;15.00;;;16.00;74.60;;;;;;5013189;28;20033;-74
2022/04/23 10:59:40;;;;;;;71.15;15.07;;;16.00;74.60;;;;;;5027561;28;20075;-74
2022/04/23 11:02:21;;;;;;;69.25;14.20;;;16.10;74.50;;;;;;5014575;28;20081;-74
2022/04/23 11:13:27;;;;;;;68.93;15.10;;;16.20;74.20;;;;;;5000574;28;20079;-74
2022/04/23 11:16:12;;;;;;;59.55;14.50;;;16.10;74.20;;;;;;5007667;28;20022;-74
2022/04/23 11:18:40;;;;;;;64.13;14.23;;;16.10;74.20;;;;;;5018781;28;20112;-75
2022/04/23 11:21:10;;;;;;;54.92;13.27;;;16.20;74.20;;;;;;5012592;28;20033;-75
2022/04/23 11:23:37;;;;;;;49.63;12.90;;;16.20;74.20;;;;;;5021091;28;20014;-75
2022/04/23 11:26:03;;;;;;;48.85;11.88;;;16.20;74.30;;;;;;5011743;28;20511;-74
2022/04/23 11:28:29;;;;;;;48.10;12.57;;;16.20;74.30;;;;;;5000996;28;20028;-74
2022/04/23 11:30:57;;;;;;;49.35;12.55;;;16.20;74.40;;;;;;5018556;28;20113;-73
2022/04/23 11:33:23;;;;;;;52.78;12.43;;;16.20;74.30;;;;;;5016344;28;20022;-74
2022/04/23 11:35:49;;;;;;;50.33;13.00;;;16.20;74.40;;;;;;5010529;28;20388;-74
2022/04/23 11:38:23;;;;;;;51.55;12.57;;;16.10;74.40;;;;;;5014005;28;20485;-74
2022/04/23 11:40:49;;;;;;;61.50;13.82;;;16.10;74.40;;;;;;5022589;28;20025;-74
2022/04/23 11:43:32;;;;;;;59.03;13.77;;;16.00;74.50;;;;;;5000743;28;20547;-75
2022/04/23 11:46:02;;;;;;;51.83;12.93;;;16.00;74.50;;;;;;5003484;28;20018;-75
2022/04/23 11:48:38;;;;;;;49.97;12.70;;;16.00;74.70;;;;;;5012188;28;20025;-73
2022/04/23 11:51:07;;;;;;;45.92;11.43;;;16.00;74.80;;;;;;5005173;28;20610;-74
2022/04/23 11:53:48;;;;;;;53.65;12.15;;;16.00;74.90;;;;;;5002444;28;20653;-73
2022/04/23 11:56:44;;;;;;;44.78;12.07;;;16.00;74.90;;;;;;5011589;28;20079;-74
2022/04/23 11:59:11;;;;;;;50.58;13.70;;;16.00;75.00;;;;;;5005155;28;20546;-75
2022/04/23 12:01:41;;;;;;;52.25;12.45;;;16.00;75.00;;;;;;5008685;28;20030;-74
2022/04/23 12:04:07;;;;;;;44.83;12.15;;;16.00;75.10;;;;;;5004903;28;20021;-74
2022/04/23 12:06:46;;;;;;;43.15;11.20;;;15.90;74.80;;;;;;5005748;28;20022;-72
2022/04/23 12:09:12;;;;;;;45.50;12.77;;;16.00;74.90;;;;;;5008813;28;20034;-71
2022/04/23 12:11:38;;;;;;;44.15;11.40;;;16.00;74.70;;;;;;5000535;28;20029;-74
2022/04/23 12:14:05;;;;;;;44.45;11.23;;;15.90;74.80;;;;;;5006667;28;20460;-72
2022/04/23 12:16:41;;;;;;;131.48;14.82;;;15.90;74.70;;;;;;5000902;28;20029;-71
2022/04/23 12:19:13;;;;;;;81.57;13.07;;;15.90;74.80;;;;;;5004580;28;20058;-72
2022/04/23 12:21:54;;;;;;;83.35;16.30;;;16.00;74.30;;;;;;5004258;28;20052;-73
2022/04/23 12:24:31;;;;;;;78.13;14.20;;;16.00;73.90;;;;;;5007172;28;20446;-70
2022/04/23 12:27:04;;;;;;;92.40;15.52;;;16.00;73.80;;;;;;5006360;28;20022;-72
2022/04/23 12:40:50;;;;;;;50.90;14.27;;;16.00;73.80;;;;;;5003598;28;20099;-73
2022/04/23 12:43:30;;;;;;;62.47;13.18;;;16.00;73.90;;;;;;4996506;28;20076;-73
2022/04/23 12:46:07;;;;;;;63.47;12.13;;;15.90;73.80;;;;;;5004439;28;20041;-73
2022/04/23 12:48:54;;;;;;;61.35;13.85;;;16.00;73.80;;;;;;5010386;28;20019;-74
2022/04/23 12:51:19;;;;;;;49.22;12.43;;;16.00;73.90;;;;;;5005753;28;20025;-72
2022/04/23 12:53:44;;;;;;;66.50;13.20;;;15.90;73.90;;;;;;5016972;28;20116;-73
2022/04/23 12:56:10;;;;;;;55.63;13.30;;;15.90;73.80;;;;;;5006347;28;20025;-72
2022/04/23 12:58:35;;;;;;;52.50;11.95;;;15.90;73.90;;;;;;5019463;28;20500;-73
2022/04/23 13:01:01;;;;;;;48.83;11.85;;;15.90;73.90;;;;;;5012722;28;20410;-72
2022/04/23 13:03:35;;;;;;;47.55;11.63;;;15.90;74.00;;;;;;5012998;28;20022;-73
2022/04/23 13:06:03;;;;;;;53.75;11.95;;;15.80;73.90;;;;;;5017182;28;20432;-73
2022/04/23 13:11:24;;;;;;;50.22;11.45;;;15.90;74.10;;;;;;5014816;28;20028;-71
2022/04/23 13:13:54;;;;;;;43.50;11.82;;;15.90;74.10;;;;;;5014464;28;20028;-73
2022/04/23 13:16:20;;;;;;;40.08;11.13;;;15.80;74.10;;;;;;5007928;28;20021;-74
2022/04/23 13:18:46;;;;;;;47.67;10.65;;;15.90;74.20;;;;;;5009198;28;20026;-73
2022/04/23 13:21:11;;;;;;;49.08;12.48;;;15.90;73.50;;;;;;5021784;28;20128;-72
2022/04/23 13:23:37;;;;;;;53.28;12.45;;;15.90;73.90;;;;;;5014801;28;20024;-73